Alex, Minnesota
Current Conditions -  °F | °C
As of 10:53 AM on Thursday 27 Nov 2014 (Local Time) from KAXN Reporting Station
Clear Clear  
Wind Chill:   Ceiling: Unl
Heat Index:   Visibility: 10mi
Dew Point: -6°   Wind: 0mph
Humidity: 76%   Direction: NA
Pressure: 30.45"   Gusts: NA
Location:  45.8551°N, 95.4333°W
Report Text: KAXN 271653Z AUTO 00000KT 10SM CLR M18/M21 A3045 RMK AO2 SLP354 T11781211
Loading
Personal Weather Stations






























Interactive Weather Map New forecast layout! Learn more

10-Day Weather Forecast

Advertisements
Track Severe Weather on mobile